Terminal Aerodrome Forecast
Issued by NWS

Home | Current Version | Previous Version | Text Only | Print | Product List | Glossary Off
Versions: 1 2 3 4 5 6 7 8 9 10 11 12 13 14 15 16 17 18 19 20 21 22 23 24 25 26 27 28 29 30 31 32

000
FTUS43 KLOT 252336
TAFORD
TAF
KORD 252336Z 2600/2706 VRB05KT 4SM TSRA BKN040CB
      TEMPO 2600/2603 10009KT 1SM +TSRA SCT020 OVC040CB
     FM260300 18008KT P6SM SCT025 BKN120 BKN250 PROB30 2612/2615 5SM
      -TSRA BR OVC040CB
     FM261500 22012G17KT P6SM SCT035 BKN250=

USA.gov is the U.S. government's official web portal to all federal, state and local government web resources and services.